sensor_id;sensor_type;location;lat;lon;timestamp;temperature;humidity
23801;DHT22;12081;48.614;10.226;2023-04-05T00:02:42;-2.80;99.90
23801;DHT22;12081;48.614;10.226;2023-04-05T00:05:27;-3.10;99.90
23801;DHT22;12081;48.614;10.226;2023-04-05T00:08:14;-3.10;99.90
23801;DHT22;12081;48.614;10.226;2023-04-05T00:11:07;-2.70;99.90
23801;DHT22;12081;48.614;10.226;2023-04-05T00:13:51;-3.10;99.90
23801;DHT22;12081;48.614;10.226;2023-04-05T00:16:35;-3.10;99.90
23801;DHT22;12081;48.614;10.226;2023-04-05T00:19:19;-2.90;99.90
23801;DHT22;12081;48.614;10.226;2023-04-05T00:22:06;-3.20;99.90
23801;DHT22;12081;48.614;10.226;2023-04-05T00:24:53;-3.30;99.90
23801;DHT22;12081;48.614;10.226;2023-04-05T00:27:38;-3.30;99.90
23801;DHT22;12081;48.614;10.226;2023-04-05T00:30:22;-3.00;99.90
23801;DHT22;12081;48.614;10.226;2023-04-05T00:33:07;-3.00;99.90
23801;DHT22;12081;48.614;10.226;2023-04-05T00:35:51;-3.40;99.90
23801;DHT22;12081;48.614;10.226;2023-04-05T00:38:35;-2.40;99.90
23801;DHT22;12081;48.614;10.226;2023-04-05T00:41:19;-2.70;99.90
23801;DHT22;12081;48.614;10.226;2023-04-05T00:44:03;-3.50;99.90
23801;DHT22;12081;48.614;10.226;2023-04-05T00:46:48;-3.50;99.90
23801;DHT22;12081;48.614;10.226;2023-04-05T00:49:34;-3.50;99.90
23801;DHT22;12081;48.614;10.226;2023-04-05T00:52:19;-3.50;99.90
23801;DHT22;12081;48.614;10.226;2023-04-05T00:55:06;-3.50;99.90
23801;DHT22;12081;48.614;10.226;2023-04-05T00:57:52;-3.50;99.90
23801;DHT22;12081;48.614;10.226;2023-04-05T01:00:39;-2.50;99.90
23801;DHT22;12081;48.614;10.226;2023-04-05T01:03:25;-3.40;99.90
23801;DHT22;12081;48.614;10.226;2023-04-05T01:12:32;-3.30;99.90
23801;DHT22;12081;48.614;10.226;2023-04-05T01:15:16;-3.40;99.90
23801;DHT22;12081;48.614;10.226;2023-04-05T01:18:02;-3.40;99.90
23801;DHT22;12081;48.614;10.226;2023-04-05T01:27:55;-3.30;99.90
23801;DHT22;12081;48.614;10.226;2023-04-05T01:30:53;-3.30;99.90
23801;DHT22;12081;48.614;10.226;2023-04-05T01:33:46;-3.20;99.90
23801;DHT22;12081;48.614;10.226;2023-04-05T01:36:40;-2.20;99.90
23801;DHT22;12081;48.614;10.226;2023-04-05T01:39:26;-3.20;99.90
23801;DHT22;12081;48.614;10.226;2023-04-05T01:42:11;-2.70;99.90
23801;DHT22;12081;48.614;10.226;2023-04-05T01:44:56;-3.20;99.90
23801;DHT22;12081;48.614;10.226;2023-04-05T01:47:41;-2.00;99.90
23801;DHT22;12081;48.614;10.226;2023-04-05T01:50:25;-3.30;99.90
23801;DHT22;12081;48.614;10.226;2023-04-05T01:53:09;-3.40;99.90
23801;DHT22;12081;48.614;10.226;2023-04-05T01:55:59;-3.00;99.90
23801;DHT22;12081;48.614;10.226;2023-04-05T01:58:43;-3.00;99.90
23801;DHT22;12081;48.614;10.226;2023-04-05T02:01:27;-3.60;99.90
23801;DHT22;12081;48.614;10.226;2023-04-05T02:04:11;-1.90;99.90
23801;DHT22;12081;48.614;10.226;2023-04-05T02:06:55;-3.50;99.90
23801;DHT22;12081;48.614;10.226;2023-04-05T02:09:39;-3.90;99.90
23801;DHT22;12081;48.614;10.226;2023-04-05T02:12:24;-4.00;99.90
23801;DHT22;12081;48.614;10.226;2023-04-05T02:15:09;-3.90;99.90
23801;DHT22;12081;48.614;10.226;2023-04-05T02:17:53;-4.00;99.90
23801;DHT22;12081;48.614;10.226;2023-04-05T02:20:37;-4.10;99.90
23801;DHT22;12081;48.614;10.226;2023-04-05T02:23:21;-4.20;99.90
23801;DHT22;12081;48.614;10.226;2023-04-05T02:26:05;-4.20;99.90
23801;DHT22;12081;48.614;10.226;2023-04-05T02:28:49;-4.20;99.90
23801;DHT22;12081;48.614;10.226;2023-04-05T02:31:34;-4.30;99.90
23801;DHT22;12081;48.614;10.226;2023-04-05T02:34:18;-4.20;99.90
23801;DHT22;12081;48.614;10.226;2023-04-05T02:37:02;-2.20;99.90
23801;DHT22;12081;48.614;10.226;2023-04-05T02:39:46;-1.80;99.90
23801;DHT22;12081;48.614;10.226;2023-04-05T02:42:30;-4.30;99.90
23801;DHT22;12081;48.614;10.226;2023-04-05T02:45:14;-2.90;99.90
23801;DHT22;12081;48.614;10.226;2023-04-05T02:47:58;-4.30;99.90
23801;DHT22;12081;48.614;10.226;2023-04-05T02:50:50;-4.40;99.90
23801;DHT22;12081;48.614;10.226;2023-04-05T02:53:34;-3.30;99.90
23801;DHT22;12081;48.614;10.226;2023-04-05T02:56:19;-4.80;99.90
23801;DHT22;12081;48.614;10.226;2023-04-05T02:59:05;-4.60;99.90
23801;DHT22;12081;48.614;10.226;2023-04-05T03:01:49;-5.00;99.90
23801;DHT22;12081;48.614;10.226;2023-04-05T03:04:33;-5.30;99.90
23801;DHT22;12081;48.614;10.226;2023-04-05T03:07:17;-4.80;99.90
23801;DHT22;12081;48.614;10.226;2023-04-05T03:10:01;-4.90;99.90
23801;DHT22;12081;48.614;10.226;2023-04-05T03:12:46;-2.00;99.90
23801;DHT22;12081;48.614;10.226;2023-04-05T03:15:31;-4.80;99.90
23801;DHT22;12081;48.614;10.226;2023-04-05T03:18:15;-4.90;99.90
23801;DHT22;12081;48.614;10.226;2023-04-05T03:21:00;-4.70;99.90
23801;DHT22;12081;48.614;10.226;2023-04-05T03:23:44;-4.80;99.90
23801;DHT22;12081;48.614;10.226;2023-04-05T03:26:29;-5.10;99.90
23801;DHT22;12081;48.614;10.226;2023-04-05T03:29:14;-1.90;99.90
23801;DHT22;12081;48.614;10.226;2023-04-05T03:31:58;-5.20;99.90
23801;DHT22;12081;48.614;10.226;2023-04-05T03:34:42;-5.20;99.90
23801;DHT22;12081;48.614;10.226;2023-04-05T03:40:02;-4.90;99.90
23801;DHT22;12081;48.614;10.226;2023-04-05T05:31:33;-4.30;99.90
23801;DHT22;12081;48.614;10.226;2023-04-05T05:34:17;-4.20;99.90
23801;DHT22;12081;48.614;10.226;2023-04-05T05:37:02;-3.50;99.90
23801;DHT22;12081;48.614;10.226;2023-04-05T05:39:46;-4.10;99.90
23801;DHT22;12081;48.614;10.226;2023-04-05T05:42:30;-3.80;99.90
23801;DHT22;12081;48.614;10.226;2023-04-05T05:45:18;-4.00;99.90
23801;DHT22;12081;48.614;10.226;2023-04-05T05:48:02;-3.90;99.90
23801;DHT22;12081;48.614;10.226;2023-04-05T05:50:46;-3.70;99.90
23801;DHT22;12081;48.614;10.226;2023-04-05T05:53:31;-3.20;99.90
23801;DHT22;12081;48.614;10.226;2023-04-05T05:56:15;-2.70;99.90
23801;DHT22;12081;48.614;10.226;2023-04-05T05:58:59;-2.00;99.90
23801;DHT22;12081;48.614;10.226;2023-04-05T06:01:44;-1.30;99.90
23801;DHT22;12081;48.614;10.226;2023-04-05T06:04:29;-0.60;99.90
23801;DHT22;12081;48.614;10.226;2023-04-05T06:07:13;0.10;99.90
23801;DHT22;12081;48.614;10.226;2023-04-05T06:09:58;0.90;99.90
23801;DHT22;12081;48.614;10.226;2023-04-05T06:12:42;1.50;99.90
23801;DHT22;12081;48.614;10.226;2023-04-05T06:15:26;1.90;99.90
23801;DHT22;12081;48.614;10.226;2023-04-05T06:18:10;2.30;99.90
23801;DHT22;12081;48.614;10.226;2023-04-05T06:20:54;2.90;97.70
23801;DHT22;12081;48.614;10.226;2023-04-05T06:23:42;3.10;95.50
23801;DHT22;12081;48.614;10.226;2023-04-05T06:26:26;3.40;94.20
23801;DHT22;12081;48.614;10.226;2023-04-05T06:29:12;3.80;92.60
23801;DHT22;12081;48.614;10.226;2023-04-05T06:31:56;4.30;91.00
23801;DHT22;12081;48.614;10.226;2023-04-05T06:34:41;4.70;86.30
23801;DHT22;12081;48.614;10.226;2023-04-05T06:37:25;5.10;84.90
23801;DHT22;12081;48.614;10.226;2023-04-05T06:40:09;5.60;82.40
23801;DHT22;12081;48.614;10.226;2023-04-05T06:42:53;6.30;75.90
23801;DHT22;12081;48.614;10.226;2023-04-05T06:45:38;7.00;72.00
23801;DHT22;12081;48.614;10.226;2023-04-05T06:48:22;7.30;67.10
23801;DHT22;12081;48.614;10.226;2023-04-05T06:51:06;7.80;63.90
23801;DHT22;12081;48.614;10.226;2023-04-05T06:53:50;8.10;61.80
23801;DHT22;12081;48.614;10.226;2023-04-05T06:56:34;8.20;59.80
23801;DHT22;12081;48.614;10.226;2023-04-05T06:59:19;8.40;59.40
23801;DHT22;12081;48.614;10.226;2023-04-05T07:02:03;10.00;59.00
23801;DHT22;12081;48.614;10.226;2023-04-05T07:04:47;8.90;58.00
23801;DHT22;12081;48.614;10.226;2023-04-05T07:07:32;9.10;56.60
23801;DHT22;12081;48.614;10.226;2023-04-05T07:10:16;9.40;56.40
23801;DHT22;12081;48.614;10.226;2023-04-05T07:13:00;9.90;55.50
23801;DHT22;12081;48.614;10.226;2023-04-05T07:15:44;10.00;54.70
23801;DHT22;12081;48.614;10.226;2023-04-05T07:18:28;10.20;53.60
23801;DHT22;12081;48.614;10.226;2023-04-05T07:21:13;10.40;53.40
23801;DHT22;12081;48.614;10.226;2023-04-05T07:23:58;10.30;53.00
23801;DHT22;12081;48.614;10.226;2023-04-05T07:26:43;10.50;53.30
23801;DHT22;12081;48.614;10.226;2023-04-05T07:29:28;10.40;53.00
23801;DHT22;12081;48.614;10.226;2023-04-05T07:32:12;11.50;52.90
23801;DHT22;12081;48.614;10.226;2023-04-05T07:34:56;11.10;51.50
23801;DHT22;12081;48.614;10.226;2023-04-05T07:37:40;11.80;51.30
23801;DHT22;12081;48.614;10.226;2023-04-05T07:40:24;12.00;49.70
23801;DHT22;12081;48.614;10.226;2023-04-05T07:43:08;11.80;50.20
23801;DHT22;12081;48.614;10.226;2023-04-05T07:46:01;12.20;50.20
23801;DHT22;12081;48.614;10.226;2023-04-05T07:48:48;12.00;49.50
23801;DHT22;12081;48.614;10.226;2023-04-05T07:51:32;12.20;49.90
23801;DHT22;12081;48.614;10.226;2023-04-05T07:54:19;12.30;49.20
23801;DHT22;12081;48.614;10.226;2023-04-05T07:57:03;12.50;48.80
23801;DHT22;12081;48.614;10.226;2023-04-05T07:59:48;12.60;48.60
23801;DHT22;12081;48.614;10.226;2023-04-05T08:02:33;13.00;47.90
23801;DHT22;12081;48.614;10.226;2023-04-05T08:05:17;14.40;47.30
23801;DHT22;12081;48.614;10.226;2023-04-05T08:08:01;14.00;44.70
23801;DHT22;12081;48.614;10.226;2023-04-05T08:10:46;15.00;44.50
23801;DHT22;12081;48.614;10.226;2023-04-05T08:13:30;14.30;44.20
23801;DHT22;12081;48.614;10.226;2023-04-05T08:16:16;14.60;42.60
23801;DHT22;12081;48.614;10.226;2023-04-05T08:19:00;14.30;42.70
23801;DHT22;12081;48.614;10.226;2023-04-05T08:21:44;13.90;43.10
23801;DHT22;12081;48.614;10.226;2023-04-05T08:24:29;14.60;43.80
23801;DHT22;12081;48.614;10.226;2023-04-05T08:27:13;14.50;43.10
23801;DHT22;12081;48.614;10.226;2023-04-05T08:29:57;14.90;42.40
23801;DHT22;12081;48.614;10.226;2023-04-05T08:32:41;15.30;41.70
23801;DHT22;12081;48.614;10.226;2023-04-05T08:35:25;15.30;41.70
23801;DHT22;12081;48.614;10.226;2023-04-05T08:38:09;15.90;41.80
23801;DHT22;12081;48.614;10.226;2023-04-05T08:40:55;16.40;41.40
23801;DHT22;12081;48.614;10.226;2023-04-05T08:43:48;16.60;40.60
23801;DHT22;12081;48.614;10.226;2023-04-05T08:46:36;16.70;39.70
23801;DHT22;12081;48.614;10.226;2023-04-05T08:49:20;16.80;39.90
23801;DHT22;12081;48.614;10.226;2023-04-05T08:52:04;18.30;41.00
23801;DHT22;12081;48.614;10.226;2023-04-05T08:54:49;17.70;38.20
23801;DHT22;12081;48.614;10.226;2023-04-05T08:57:36;17.40;37.70
23801;DHT22;12081;48.614;10.226;2023-04-05T09:00:22;18.90;39.20
23801;DHT22;12081;48.614;10.226;2023-04-05T09:03:06;16.30;38.60
23801;DHT22;12081;48.614;10.226;2023-04-05T09:05:57;18.00;39.70
23801;DHT22;12081;48.614;10.226;2023-04-05T09:08:42;17.50;38.40
23801;DHT22;12081;48.614;10.226;2023-04-05T09:11:26;18.10;36.60
23801;DHT22;12081;48.614;10.226;2023-04-05T09:14:11;18.70;35.80
23801;DHT22;12081;48.614;10.226;2023-04-05T09:16:56;20.40;36.50
23801;DHT22;12081;48.614;10.226;2023-04-05T09:19:42;18.30;35.00
23801;DHT22;12081;48.614;10.226;2023-04-05T09:22:26;17.50;34.30
23801;DHT22;12081;48.614;10.226;2023-04-05T09:25:11;19.40;36.40
23801;DHT22;12081;48.614;10.226;2023-04-05T09:27:55;16.80;35.20
23801;DHT22;12081;48.614;10.226;2023-04-05T09:30:45;18.40;36.90
23801;DHT22;12081;48.614;10.226;2023-04-05T09:33:29;16.90;36.00
23801;DHT22;12081;48.614;10.226;2023-04-05T09:36:13;19.40;36.70
23801;DHT22;12081;48.614;10.226;2023-04-05T09:39:08;17.40;35.50
23801;DHT22;12081;48.614;10.226;2023-04-05T09:42:06;18.10;35.10
23801;DHT22;12081;48.614;10.226;2023-04-05T09:44:58;18.90;33.00
23801;DHT22;12081;48.614;10.226;2023-04-05T09:47:54;19.90;33.50
23801;DHT22;12081;48.614;10.226;2023-04-05T09:50:42;19.50;33.20
23801;DHT22;12081;48.614;10.226;2023-04-05T09:53:26;19.10;33.50
23801;DHT22;12081;48.614;10.226;2023-04-05T09:56:12;18.90;31.50
23801;DHT22;12081;48.614;10.226;2023-04-05T09:59:08;18.10;31.80
23801;DHT22;12081;48.614;10.226;2023-04-05T10:01:53;21.10;33.50
23801;DHT22;12081;48.614;10.226;2023-04-05T10:04:42;19.40;32.10
23801;DHT22;12081;48.614;10.226;2023-04-05T10:07:26;20.10;31.00
23801;DHT22;12081;48.614;10.226;2023-04-05T10:10:11;20.90;30.30
23801;DHT22;12081;48.614;10.226;2023-04-05T10:12:56;21.60;29.40
23801;DHT22;12081;48.614;10.226;2023-04-05T10:15:44;21.70;29.70
23801;DHT22;12081;48.614;10.226;2023-04-05T10:18:32;21.00;29.40
23801;DHT22;12081;48.614;10.226;2023-04-05T10:21:28;19.70;30.30
23801;DHT22;12081;48.614;10.226;2023-04-05T10:24:32;19.80;30.40
23801;DHT22;12081;48.614;10.226;2023-04-05T10:27:32;19.60;30.50
23801;DHT22;12081;48.614;10.226;2023-04-05T10:30:18;20.50;30.50
23801;DHT22;12081;48.614;10.226;2023-04-05T10:33:21;21.40;31.30
23801;DHT22;12081;48.614;10.226;2023-04-05T10:39:03;20.70;30.30
23801;DHT22;12081;48.614;10.226;2023-04-05T10:41:52;20.50;31.40
23801;DHT22;12081;48.614;10.226;2023-04-05T10:44:38;19.70;30.90
23801;DHT22;12081;48.614;10.226;2023-04-05T10:47:26;18.70;31.20
23801;DHT22;12081;48.614;10.226;2023-04-05T10:50:16;19.80;32.00
23801;DHT22;12081;48.614;10.226;2023-04-05T10:53:03;18.20;32.00
23801;DHT22;12081;48.614;10.226;2023-04-05T10:55:48;18.30;31.80
23801;DHT22;12081;48.614;10.226;2023-04-05T10:58:34;16.90;32.60
23801;DHT22;12081;48.614;10.226;2023-04-05T11:01:20;15.70;34.60
23801;DHT22;12081;48.614;10.226;2023-04-05T11:04:14;14.70;35.50
23801;DHT22;12081;48.614;10.226;2023-04-05T11:07:16;14.70;36.30
23801;DHT22;12081;48.614;10.226;2023-04-05T11:10:02;14.50;36.30
23801;DHT22;12081;48.614;10.226;2023-04-05T11:15:40;14.10;36.90
23801;DHT22;12081;48.614;10.226;2023-04-05T11:18:24;15.80;37.30
23801;DHT22;12081;48.614;10.226;2023-04-05T11:21:08;17.80;36.20
23801;DHT22;12081;48.614;10.226;2023-04-05T11:24:07;15.50;34.10
23801;DHT22;12081;48.614;10.226;2023-04-05T11:26:55;14.80;35.40
23801;DHT22;12081;48.614;10.226;2023-04-05T11:29:47;16.20;35.50
23801;DHT22;12081;48.614;10.226;2023-04-05T11:32:44;18.20;32.90
23801;DHT22;12081;48.614;10.226;2023-04-05T11:35:33;20.00;31.50
23801;DHT22;12081;48.614;10.226;2023-04-05T11:38:21;20.50;29.40
23801;DHT22;12081;48.614;10.226;2023-04-05T11:41:15;19.70;30.00
23801;DHT22;12081;48.614;10.226;2023-04-05T11:44:04;18.70;30.80
23801;DHT22;12081;48.614;10.226;2023-04-05T11:46:49;18.60;31.60
23801;DHT22;12081;48.614;10.226;2023-04-05T11:49:34;17.90;31.60
23801;DHT22;12081;48.614;10.226;2023-04-05T11:52:20;17.10;33.00
23801;DHT22;12081;48.614;10.226;2023-04-05T11:55:05;17.50;33.40
23801;DHT22;12081;48.614;10.226;2023-04-05T11:57:51;16.00;33.10
23801;DHT22;12081;48.614;10.226;2023-04-05T12:00:36;15.10;34.70
23801;DHT22;12081;48.614;10.226;2023-04-05T12:03:20;14.90;34.80
23801;DHT22;12081;48.614;10.226;2023-04-05T12:06:05;15.00;35.40
23801;DHT22;12081;48.614;10.226;2023-04-05T12:08:51;14.70;35.50
23801;DHT22;12081;48.614;10.226;2023-04-05T12:11:38;15.40;35.20
23801;DHT22;12081;48.614;10.226;2023-04-05T12:14:24;17.50;34.80
23801;DHT22;12081;48.614;10.226;2023-04-05T12:17:08;17.90;32.60
23801;DHT22;12081;48.614;10.226;2023-04-05T12:19:52;18.90;32.00
23801;DHT22;12081;48.614;10.226;2023-04-05T12:22:36;20.40;31.50
23801;DHT22;12081;48.614;10.226;2023-04-05T12:25:22;21.00;30.40
23801;DHT22;12081;48.614;10.226;2023-04-05T12:28:06;20.90;29.50
23801;DHT22;12081;48.614;10.226;2023-04-05T12:30:52;20.90;29.10
23801;DHT22;12081;48.614;10.226;2023-04-05T12:33:40;21.30;28.70
23801;DHT22;12081;48.614;10.226;2023-04-05T12:36:29;22.60;28.00
23801;DHT22;12081;48.614;10.226;2023-04-05T12:39:17;22.70;28.40
23801;DHT22;12081;48.614;10.226;2023-04-05T12:42:01;23.00;28.20
23801;DHT22;12081;48.614;10.226;2023-04-05T12:45:02;22.50;27.10
23801;DHT22;12081;48.614;10.226;2023-04-05T12:47:52;22.10;28.00
23801;DHT22;12081;48.614;10.226;2023-04-05T12:50:44;21.70;28.50
23801;DHT22;12081;48.614;10.226;2023-04-05T12:53:29;21.40;28.70
23801;DHT22;12081;48.614;10.226;2023-04-05T12:56:17;21.30;28.20
23801;DHT22;12081;48.614;10.226;2023-04-05T12:59:04;21.00;28.00
23801;DHT22;12081;48.614;10.226;2023-04-05T13:01:49;23.00;28.80
23801;DHT22;12081;48.614;10.226;2023-04-05T13:04:33;21.70;28.30
23801;DHT22;12081;48.614;10.226;2023-04-05T13:07:17;20.60;28.50
23801;DHT22;12081;48.614;10.226;2023-04-05T13:10:01;20.00;28.30
23801;DHT22;12081;48.614;10.226;2023-04-05T13:12:45;19.40;28.60
23801;DHT22;12081;48.614;10.226;2023-04-05T13:15:30;20.40;29.80
23801;DHT22;12081;48.614;10.226;2023-04-05T13:18:15;17.30;30.50
23801;DHT22;12081;48.614;10.226;2023-04-05T13:20:59;16.60;31.70
23801;DHT22;12081;48.614;10.226;2023-04-05T13:23:43;16.30;32.00
23801;DHT22;12081;48.614;10.226;2023-04-05T13:26:27;15.60;32.70
23801;DHT22;12081;48.614;10.226;2023-04-05T13:29:11;15.30;33.40
23801;DHT22;12081;48.614;10.226;2023-04-05T13:31:55;16.00;35.00
23801;DHT22;12081;48.614;10.226;2023-04-05T13:34:39;15.20;35.20
23801;DHT22;12081;48.614;10.226;2023-04-05T13:37:24;16.50;36.10
23801;DHT22;12081;48.614;10.226;2023-04-05T13:40:08;15.10;34.40
23801;DHT22;12081;48.614;10.226;2023-04-05T13:42:53;15.00;34.70
23801;DHT22;12081;48.614;10.226;2023-04-05T13:45:37;14.50;35.00
23801;DHT22;12081;48.614;10.226;2023-04-05T13:48:22;14.50;35.00
23801;DHT22;12081;48.614;10.226;2023-04-05T13:51:06;14.70;34.10
23801;DHT22;12081;48.614;10.226;2023-04-05T13:53:50;14.60;34.30
23801;DHT22;12081;48.614;10.226;2023-04-05T13:56:34;16.50;36.10
23801;DHT22;12081;48.614;10.226;2023-04-05T13:59:18;14.40;35.30
23801;DHT22;12081;48.614;10.226;2023-04-05T14:02:03;14.20;34.70
23801;DHT22;12081;48.614;10.226;2023-04-05T14:04:47;14.20;34.30
23801;DHT22;12081;48.614;10.226;2023-04-05T14:07:31;14.30;34.50
23801;DHT22;12081;48.614;10.226;2023-04-05T14:10:15;14.40;34.40
23801;DHT22;12081;48.614;10.226;2023-04-05T14:13:00;13.90;34.70
23801;DHT22;12081;48.614;10.226;2023-04-05T14:15:45;14.00;35.30
23801;DHT22;12081;48.614;10.226;2023-04-05T14:18:29;15.50;36.90
23801;DHT22;12081;48.614;10.226;2023-04-05T14:21:14;13.70;36.10
23801;DHT22;12081;48.614;10.226;2023-04-05T14:23:58;14.00;37.70
23801;DHT22;12081;48.614;10.226;2023-04-05T14:26:42;13.20;38.00
23801;DHT22;12081;48.614;10.226;2023-04-05T14:29:32;13.10;37.30
23801;DHT22;12081;48.614;10.226;2023-04-05T14:32:16;13.40;37.80
23801;DHT22;12081;48.614;10.226;2023-04-05T14:35:00;13.80;36.80
23801;DHT22;12081;48.614;10.226;2023-04-05T14:37:44;13.70;37.00
23801;DHT22;12081;48.614;10.226;2023-04-05T14:40:29;13.70;36.20
23801;DHT22;12081;48.614;10.226;2023-04-05T14:43:13;13.30;37.00
23801;DHT22;12081;48.614;10.226;2023-04-05T14:45:57;12.80;37.30
23801;DHT22;12081;48.614;10.226;2023-04-05T14:48:41;12.40;37.90
23801;DHT22;12081;48.614;10.226;2023-04-05T14:51:26;12.40;38.00
23801;DHT22;12081;48.614;10.226;2023-04-05T14:54:10;12.40;37.80
23801;DHT22;12081;48.614;10.226;2023-04-05T14:56:54;12.10;38.80
23801;DHT22;12081;48.614;10.226;2023-04-05T14:59:38;11.70;39.60
23801;DHT22;12081;48.614;10.226;2023-04-05T15:02:22;11.50;39.40
23801;DHT22;12081;48.614;10.226;2023-04-05T15:05:07;11.80;39.50
23801;DHT22;12081;48.614;10.226;2023-04-05T15:07:52;11.30;40.40
23801;DHT22;12081;48.614;10.226;2023-04-05T15:10:36;11.40;40.40
23801;DHT22;12081;48.614;10.226;2023-04-05T15:13:21;11.80;41.10
23801;DHT22;12081;48.614;10.226;2023-04-05T15:16:08;11.50;40.20
23801;DHT22;12081;48.614;10.226;2023-04-05T15:18:53;13.00;40.90
23801;DHT22;12081;48.614;10.226;2023-04-05T15:21:38;11.30;39.50
23801;DHT22;12081;48.614;10.226;2023-04-05T15:24:23;11.00;40.30
23801;DHT22;12081;48.614;10.226;2023-04-05T15:27:08;10.80;40.30
23801;DHT22;12081;48.614;10.226;2023-04-05T15:29:53;10.70;41.00
23801;DHT22;12081;48.614;10.226;2023-04-05T15:32:37;10.80;41.50
23801;DHT22;12081;48.614;10.226;2023-04-05T15:35:21;10.70;41.60
23801;DHT22;12081;48.614;10.226;2023-04-05T15:38:05;10.60;41.80
23801;DHT22;12081;48.614;10.226;2023-04-05T15:40:50;10.50;41.40
23801;DHT22;12081;48.614;10.226;2023-04-05T15:43:36;10.60;42.00
23801;DHT22;12081;48.614;10.226;2023-04-05T15:46:21;10.80;42.20
23801;DHT22;12081;48.614;10.226;2023-04-05T15:49:05;10.80;42.10
23801;DHT22;12081;48.614;10.226;2023-04-05T15:51:49;10.40;41.60
23801;DHT22;12081;48.614;10.226;2023-04-05T15:54:33;10.20;42.40
23801;DHT22;12081;48.614;10.226;2023-04-05T15:57:18;10.30;43.40
23801;DHT22;12081;48.614;10.226;2023-04-05T16:00:03;10.40;42.60
23801;DHT22;12081;48.614;10.226;2023-04-05T16:02:48;10.50;42.60
23801;DHT22;12081;48.614;10.226;2023-04-05T16:05:32;10.50;42.40
23801;DHT22;12081;48.614;10.226;2023-04-05T16:08:16;10.30;42.70
23801;DHT22;12081;48.614;10.226;2023-04-05T16:11:00;10.20;42.60
23801;DHT22;12081;48.614;10.226;2023-04-05T16:13:45;10.20;43.40
23801;DHT22;12081;48.614;10.226;2023-04-05T16:16:29;9.90;42.90
23801;DHT22;12081;48.614;10.226;2023-04-05T16:19:13;9.70;43.20
23801;DHT22;12081;48.614;10.226;2023-04-05T16:21:57;9.50;43.90
23801;DHT22;12081;48.614;10.226;2023-04-05T16:24:42;9.70;43.60
23801;DHT22;12081;48.614;10.226;2023-04-05T16:27:27;9.40;44.00
23801;DHT22;12081;48.614;10.226;2023-04-05T16:30:11;9.30;44.40
23801;DHT22;12081;48.614;10.226;2023-04-05T16:32:55;9.30;44.80
23801;DHT22;12081;48.614;10.226;2023-04-05T16:35:39;9.20;45.10
23801;DHT22;12081;48.614;10.226;2023-04-05T16:38:23;9.10;44.60
23801;DHT22;12081;48.614;10.226;2023-04-05T16:41:08;9.10;44.40
23801;DHT22;12081;48.614;10.226;2023-04-05T16:43:52;9.00;44.70
23801;DHT22;12081;48.614;10.226;2023-04-05T16:46:36;9.00;45.10
23801;DHT22;12081;48.614;10.226;2023-04-05T16:49:20;8.80;45.20
23801;DHT22;12081;48.614;10.226;2023-04-05T16:52:05;8.70;45.70
23801;DHT22;12081;48.614;10.226;2023-04-05T16:54:49;8.40;46.00
23801;DHT22;12081;48.614;10.226;2023-04-05T16:57:33;8.40;45.90
23801;DHT22;12081;48.614;10.226;2023-04-05T17:00:17;8.20;46.50
23801;DHT22;12081;48.614;10.226;2023-04-05T17:03:01;8.00;47.10
23801;DHT22;12081;48.614;10.226;2023-04-05T17:05:45;7.90;47.70
23801;DHT22;12081;48.614;10.226;2023-04-05T17:08:29;7.70;47.50
23801;DHT22;12081;48.614;10.226;2023-04-05T17:11:13;7.60;47.70
23801;DHT22;12081;48.614;10.226;2023-04-05T17:13:57;7.40;48.00
23801;DHT22;12081;48.614;10.226;2023-04-05T17:16:42;7.30;48.60
23801;DHT22;12081;48.614;10.226;2023-04-05T17:19:26;7.00;48.90
23801;DHT22;12081;48.614;10.226;2023-04-05T17:22:10;9.50;50.20
23801;DHT22;12081;48.614;10.226;2023-04-05T17:24:54;6.70;48.60
23801;DHT22;12081;48.614;10.226;2023-04-05T17:27:38;6.60;49.20
23801;DHT22;12081;48.614;10.226;2023-04-05T17:30:22;6.40;49.40
23801;DHT22;12081;48.614;10.226;2023-04-05T17:33:06;6.40;49.70
23801;DHT22;12081;48.614;10.226;2023-04-05T17:35:50;6.20;50.20
23801;DHT22;12081;48.614;10.226;2023-04-05T17:38:34;7.30;51.00
23801;DHT22;12081;48.614;10.226;2023-04-05T17:41:18;5.90;50.90
23801;DHT22;12081;48.614;10.226;2023-04-05T17:44:03;5.80;51.60
23801;DHT22;12081;48.614;10.226;2023-04-05T17:46:47;5.60;52.10
23801;DHT22;12081;48.614;10.226;2023-04-05T17:49:31;5.60;51.90
23801;DHT22;12081;48.614;10.226;2023-04-05T17:52:15;5.40;52.20
23801;DHT22;12081;48.614;10.226;2023-04-05T17:55:00;5.30;52.40
23801;DHT22;12081;48.614;10.226;2023-04-05T17:57:45;5.20;52.50
23801;DHT22;12081;48.614;10.226;2023-04-05T18:00:29;4.90;53.00
23801;DHT22;12081;48.614;10.226;2023-04-05T18:03:14;5.80;53.60
23801;DHT22;12081;48.614;10.226;2023-04-05T18:05:58;4.70;53.40
23801;DHT22;12081;48.614;10.226;2023-04-05T18:08:42;4.60;53.90
23801;DHT22;12081;48.614;10.226;2023-04-05T18:11:26;4.50;54.20
23801;DHT22;12081;48.614;10.226;2023-04-05T18:14:10;4.30;54.60
23801;DHT22;12081;48.614;10.226;2023-04-05T18:16:54;4.20;55.00
23801;DHT22;12081;48.614;10.226;2023-04-05T18:19:38;4.10;55.40
23801;DHT22;12081;48.614;10.226;2023-04-05T18:22:22;4.10;55.60
23801;DHT22;12081;48.614;10.226;2023-04-05T18:25:07;4.00;55.80
23801;DHT22;12081;48.614;10.226;2023-04-05T18:27:53;3.90;56.00
23801;DHT22;12081;48.614;10.226;2023-04-05T18:30:37;3.90;56.30
23801;DHT22;12081;48.614;10.226;2023-04-05T18:33:21;3.80;56.70
23801;DHT22;12081;48.614;10.226;2023-04-05T18:36:06;3.70;56.90
23801;DHT22;12081;48.614;10.226;2023-04-05T18:38:55;3.70;57.20
23801;DHT22;12081;48.614;10.226;2023-04-05T18:41:40;3.70;57.40
23801;DHT22;12081;48.614;10.226;2023-04-05T18:44:24;3.60;58.00
23801;DHT22;12081;48.614;10.226;2023-04-05T18:47:09;3.50;58.40
23801;DHT22;12081;48.614;10.226;2023-04-05T18:49:53;3.40;58.60
23801;DHT22;12081;48.614;10.226;2023-04-05T18:52:38;3.30;58.60
23801;DHT22;12081;48.614;10.226;2023-04-05T18:55:21;3.30;58.90
23801;DHT22;12081;48.614;10.226;2023-04-05T18:58:06;3.20;58.70
23801;DHT22;12081;48.614;10.226;2023-04-05T19:00:50;3.10;58.70
23801;DHT22;12081;48.614;10.226;2023-04-05T19:03:34;3.00;59.00
23801;DHT22;12081;48.614;10.226;2023-04-05T19:06:18;2.90;59.00
23801;DHT22;12081;48.614;10.226;2023-04-05T19:09:02;2.80;59.10
23801;DHT22;12081;48.614;10.226;2023-04-05T19:11:46;2.80;59.30
23801;DHT22;12081;48.614;10.226;2023-04-05T19:14:31;2.70;59.50
23801;DHT22;12081;48.614;10.226;2023-04-05T19:17:14;2.60;59.60
23801;DHT22;12081;48.614;10.226;2023-04-05T19:19:59;2.40;59.90
23801;DHT22;12081;48.614;10.226;2023-04-05T19:22:43;2.30;60.40
23801;DHT22;12081;48.614;10.226;2023-04-05T19:25:27;2.30;61.20